Time;durP1;ratioP1;P1;durP2;ratioP2;P2;SDS_P1;SDS_P2;PMS_P1;PMS_P2;Temp;Humidity;BMP_temperature;BMP_pressure;BME280_temperature;BME280_humidity;BME280_pressure;Samples;Min_cycle;Max_cycle;Signal;HPM_P1;HPM_P2
2023/08/17 00:01:53;;;;;;;0.52;0.40;;;;;;;29.36;43.57;101907.09;4921124;28;96787;-81
2023/08/17 00:04:19;;;;;;;0.60;0.50;;;;;;;29.36;43.57;101904.34;4921780;28;98489;-81
2023/08/17 00:06:46;;;;;;;0.50;0.50;;;;;;;29.35;43.46;101903.50;4920056;28;96625;-81
2023/08/17 00:09:13;;;;;;;0.60;0.50;;;;;;;29.37;43.86;101911.59;4917922;28;96683;-81
2023/08/17 00:11:40;;;;;;;0.85;0.50;;;;;;;29.36;43.29;101909.88;4914679;28;96799;-81
2023/08/17 00:14:06;;;;;;;0.98;0.50;;;;;;;29.36;43.55;101904.34;4919378;28;96736;-81
2023/08/17 00:16:33;;;;;;;0.85;0.68;;;;;;;29.36;43.56;101918.19;4918860;28;99093;-81
2023/08/17 00:18:59;;;;;;;0.47;0.35;;;;;;;29.37;43.17;101919.88;4917184;28;96735;-81
2023/08/17 00:21:26;;;;;;;0.60;0.50;;;;;;;29.37;43.74;101914.34;4910462;28;96802;-81
2023/08/17 00:23:52;;;;;;;0.65;0.50;;;;;;;29.36;43.44;101912.66;4913884;28;96736;-81
2023/08/17 00:26:20;;;;;;;0.60;0.50;;;;;;;29.35;43.55;101908.16;4919221;28;99522;-80
2023/08/17 00:28:46;;;;;;;0.43;0.43;;;;;;;29.36;43.49;101902.44;4912109;28;96930;-80
2023/08/17 00:31:13;;;;;;;0.90;0.50;;;;;;;29.35;43.32;101903.50;4916673;28;96924;-81
2023/08/17 00:33:39;;;;;;;0.60;0.40;;;;;;;29.36;43.46;101896.03;4896910;28;99704;-81
2023/08/17 00:36:07;;;;;;;0.93;0.50;;;;;;;29.35;43.21;101886.88;4913322;28;97485;-81
2023/08/17 00:38:33;;;;;;;0.55;0.50;;;;;;;29.35;43.68;101895.19;4907600;28;97355;-81
2023/08/17 00:41:00;;;;;;;0.98;0.60;;;;;;;29.36;43.64;101894.13;4904789;28;96929;-80
2023/08/17 00:43:27;;;;;;;0.80;0.50;;;;;;;29.36;43.34;101884.97;4918595;28;96867;-81
2023/08/17 00:45:55;;;;;;;1.15;0.70;;;;;;;29.35;43.45;101878.59;4920806;28;96910;-81
2023/08/17 00:48:22;;;;;;;0.80;0.45;;;;;;;29.35;43.92;101873.06;4902386;28;96874;-81
2023/08/17 00:50:52;;;;;;;0.93;0.73;;;;;;;29.36;43.57;101872.00;4919629;28;96729;-81
2023/08/17 00:53:20;;;;;;;0.50;0.40;;;;;;;29.36;43.60;101871.13;4909409;28;97356;-81
2023/08/17 00:55:48;;;;;;;0.70;0.50;;;;;;;29.35;43.78;101867.50;4918367;28;96746;-81
2023/08/17 00:58:15;;;;;;;1.10;0.60;;;;;;;29.35;43.38;101863.91;4919667;28;96892;-81
2023/08/17 01:00:42;;;;;;;0.60;0.50;;;;;;;29.34;43.41;101868.56;4918416;28;97207;-80
2023/08/17 01:03:09;;;;;;;0.40;0.40;;;;;;;29.34;43.91;101876.88;4919359;28;99382;-82
2023/08/17 01:05:37;;;;;;;0.60;0.50;;;;;;;29.35;43.35;101869.44;4917620;28;98620;-81
2023/08/17 01:08:04;;;;;;;0.82;0.43;;;;;;;29.36;43.64;101868.38;4917198;28;96966;-81
2023/08/17 01:10:43;;;;;;;0.57;0.40;;;;;;;29.36;43.39;101868.38;4901691;28;96715;-81
2023/08/17 01:13:16;;;;;;;0.65;0.50;;;;;;;29.35;43.45;101872.19;4916457;28;97113;-81
2023/08/17 01:15:52;;;;;;;0.70;0.52;;;;;;;29.35;43.66;101875.81;4918901;28;100036;-81
2023/08/17 01:18:31;;;;;;;0.93;0.60;;;;;;;29.35;43.63;101886.88;4920038;28;96830;-81
2023/08/17 01:21:01;;;;;;;0.50;0.50;;;;;;;29.35;43.40;101883.25;4903200;28;96085;-80
2023/08/17 01:23:28;;;;;;;0.50;0.40;;;;;;;29.34;43.63;101884.31;4921960;28;98254;-81
2023/08/17 01:25:57;;;;;;;0.52;0.50;;;;;;;29.34;43.59;101885.19;4921095;28;96580;-81
2023/08/17 01:28:24;;;;;;;0.63;0.40;;;;;;;29.34;43.73;101876.03;4903636;28;96822;-81
2023/08/17 01:30:59;;;;;;;0.70;0.50;;;;;;;29.34;43.61;101873.25;4922842;28;96862;-81
2023/08/17 01:33:49;;;;;;;;;;;;;;;29.31;43.53;101868.13;4920475;28;98886;-81
2023/08/17 01:36:53;;;;;;;0.80;0.60;;;;;;;29.30;43.70;101874.72;4919832;28;98409;-81
2023/08/17 01:39:26;;;;;;;0.80;0.50;;;;;;;29.30;43.46;101867.28;4867288;28;96789;-81
2023/08/17 01:41:56;;;;;;;0.70;0.45;;;;;;;29.30;43.64;101861.75;4915800;28;96932;-81
2023/08/17 01:44:24;;;;;;;0.55;0.50;;;;;;;29.31;43.69;101870.91;4921624;28;97096;-81
2023/08/17 01:46:51;;;;;;;0.75;0.40;;;;;;;29.28;43.83;101874.09;4921770;28;97507;-81
2023/08/17 01:49:18;;;;;;;0.50;0.40;;;;;;;29.29;43.53;101867.50;4921392;28;96878;-81
2023/08/17 01:51:44;;;;;;;0.55;0.40;;;;;;;29.29;43.67;101865.59;4920490;28;97877;-80
2023/08/17 01:54:11;;;;;;;0.70;0.50;;;;;;;29.28;43.52;101861.09;4923948;28;96613;-81
2023/08/17 01:56:37;;;;;;;0.73;0.40;;;;;;;29.29;43.31;101865.59;4923027;28;97634;-81
2023/08/17 01:59:05;;;;;;;0.70;0.50;;;;;;;29.28;43.56;101874.09;4922267;28;96832;-81
2023/08/17 02:01:32;;;;;;;0.70;0.50;;;;;;;29.28;43.41;101880.47;4915114;28;96858;-81
2023/08/17 02:04:01;;;;;;;1.52;0.60;;;;;;;29.28;43.55;101874.94;4921285;28;97074;-81
2023/08/17 02:06:29;;;;;;;0.40;0.40;;;;;;;29.28;43.41;101877.72;4918777;28;99476;-81
2023/08/17 02:08:55;;;;;;;0.55;0.43;;;;;;;29.29;43.71;101873.88;4921297;28;97069;-81
2023/08/17 02:11:22;;;;;;;0.57;0.50;;;;;;;29.30;43.54;101885.81;4906018;28;96734;-81
2023/08/17 02:13:50;;;;;;;0.45;0.40;;;;;;;29.30;43.50;101880.28;4921905;28;96937;-81
2023/08/17 02:16:16;;;;;;;0.73;0.70;;;;;;;29.29;43.44;101882.19;4918863;28;97488;-81
2023/08/17 02:18:43;;;;;;;0.57;0.50;;;;;;;29.29;43.54;101889.63;4915189;28;96633;-81
2023/08/17 02:21:09;;;;;;;0.65;0.40;;;;;;;29.29;43.50;101896.00;4918216;28;96851;-81
2023/08/17 02:23:38;;;;;;;0.70;0.40;;;;;;;29.29;43.46;101895.16;4913711;28;99975;-81
2023/08/17 02:26:05;;;;;;;0.73;0.43;;;;;;;29.29;43.25;101897.94;4921780;28;98652;-81
2023/08/17 02:28:31;;;;;;;0.80;0.50;;;;;;;29.30;43.53;101888.56;4923733;28;96038;-81
2023/08/17 02:30:58;;;;;;;0.60;0.40;;;;;;;29.29;43.46;101886.88;4923448;28;96828;-81
2023/08/17 02:33:27;;;;;;;1.10;0.60;;;;;;;29.29;43.41;101884.09;4916322;28;96803;-81
2023/08/17 02:35:53;;;;;;;0.60;0.50;;;;;;;29.27;43.44;101884.31;4900069;28;97518;-81
2023/08/17 02:38:20;;;;;;;0.63;0.50;;;;;;;29.28;43.18;101876.84;4919771;28;96811;-81
2023/08/17 02:40:48;;;;;;;0.40;0.30;;;;;;;29.28;43.15;101876.84;4926042;28;96691;-81
2023/08/17 02:43:15;;;;;;;0.60;0.50;;;;;;;29.26;43.17;101871.53;4925829;28;96665;-80
2023/08/17 02:45:43;;;;;;;0.40;0.32;;;;;;;29.26;43.04;101871.53;4934271;28;96811;-81
2023/08/17 02:48:09;;;;;;;0.60;0.50;;;;;;;29.27;43.59;101875.16;4934424;28;96748;-81
2023/08/17 02:50:37;;;;;;;0.60;0.60;;;;;;;29.26;43.36;101863.22;4927512;28;96980;-81
2023/08/17 02:53:04;;;;;;;0.82;0.45;;;;;;;29.26;43.32;101862.38;4928025;28;96741;-81
2023/08/17 02:55:30;;;;;;;0.60;0.40;;;;;;;29.25;43.20;101861.53;4930850;28;99350;-81
2023/08/17 02:57:57;;;;;;;0.85;0.50;;;;;;;29.26;43.29;101859.59;4925855;28;96849;-81
2023/08/17 03:00:24;;;;;;;0.60;0.50;;;;;;;29.26;43.44;101854.06;4931490;28;96754;-81
2023/08/17 03:02:50;;;;;;;0.60;0.40;;;;;;;29.24;43.45;101857.06;4930738;28;98894;-81
2023/08/17 03:05:17;;;;;;;0.70;0.57;;;;;;;29.25;43.25;101855.13;4930060;28;96846;-81
2023/08/17 03:07:44;;;;;;;0.38;0.38;;;;;;;29.25;43.14;101855.13;4930029;28;96820;-81
2023/08/17 03:10:10;;;;;;;0.75;0.50;;;;;;;29.24;43.51;101854.28;4912131;28;96693;-82
2023/08/17 03:12:38;;;;;;;0.82;0.50;;;;;;;29.24;43.40;101847.91;4921911;28;97506;-81
2023/08/17 03:15:06;;;;;;;0.63;0.50;;;;;;;29.24;43.31;101851.50;4931222;28;97113;-81
2023/08/17 03:17:34;;;;;;;0.50;0.40;;;;;;;29.24;43.28;101851.50;4929189;28;96742;-81
2023/08/17 03:20:02;;;;;;;1.02;0.50;;;;;;;29.23;43.35;101852.56;4929429;28;97233;-81
2023/08/17 03:22:28;;;;;;;0.50;0.40;;;;;;;29.24;43.46;101847.91;4923744;28;96551;-81
2023/08/17 03:24:55;;;;;;;0.47;0.40;;;;;;;29.24;43.16;101857.06;4926535;28;97546;-80
2023/08/17 03:27:22;;;;;;;0.98;0.50;;;;;;;29.25;43.50;101857.91;4926644;28;97053;-81
2023/08/17 03:29:49;;;;;;;0.85;0.50;;;;;;;29.23;43.17;101851.72;4910283;28;96697;-82
2023/08/17 03:32:15;;;;;;;0.43;0.40;;;;;;;29.23;43.38;101848.97;4928004;28;98069;-81
2023/08/17 03:34:42;;;;;;;1.38;0.50;;;;;;;29.23;43.66;101849.81;4908561;28;99530;-81
2023/08/17 03:37:09;;;;;;;0.40;0.30;;;;;;;29.24;43.26;101850.66;4911107;28;97371;-81
2023/08/17 03:39:36;;;;;;;0.55;0.55;;;;;;;29.24;43.50;101850.66;4920326;28;96778;-81
2023/08/17 03:42:03;;;;;;;0.55;0.50;;;;;;;29.23;43.20;101838.75;4919691;28;100993;-81
2023/08/17 03:44:29;;;;;;;0.68;0.40;;;;;;;29.22;43.07;101842.56;4919601;28;100261;-81
2023/08/17 03:46:56;;;;;;;0.43;0.43;;;;;;;29.22;43.35;101842.56;4907305;28;96696;-81
2023/08/17 03:49:22;;;;;;;0.70;0.50;;;;;;;29.23;43.38;101843.44;4910005;28;96670;-81
2023/08/17 03:51:49;;;;;;;0.80;0.60;;;;;;;29.22;43.34;101837.03;4925728;28;98954;-81
2023/08/17 03:54:17;;;;;;;0.47;0.47;;;;;;;29.22;43.25;101847.25;4924193;28;99032;-80
2023/08/17 03:56:43;;;;;;;0.60;0.40;;;;;;;29.22;43.30;101841.72;4927234;28;96944;-81
2023/08/17 03:59:10;;;;;;;0.30;0.30;;;;;;;29.22;43.35;101847.25;4922972;28;98354;-81
2023/08/17 04:01:37;;;;;;;0.70;0.50;;;;;;;29.21;42.85;101848.31;4927058;28;97027;-81
2023/08/17 04:04:03;;;;;;;0.40;0.40;;;;;;;29.21;43.29;101846.41;4920892;28;96896;-81
2023/08/17 04:06:30;;;;;;;0.68;0.40;;;;;;;29.21;43.12;101846.41;4925540;28;96954;-81
2023/08/17 04:08:57;;;;;;;0.40;0.38;;;;;;;29.21;43.10;101846.41;4907959;28;97042;-81
2023/08/17 04:11:23;;;;;;;0.60;0.40;;;;;;;29.20;43.10;101844.69;4925834;28;97721;-81
2023/08/17 04:13:50;;;;;;;0.43;0.40;;;;;;;29.21;43.12;101849.16;4921495;28;99066;-81
2023/08/17 04:16:19;;;;;;;0.50;0.40;;;;;;;29.22;43.10;101852.78;4902873;28;97112;-81
2023/08/17 04:18:46;;;;;;;0.60;0.40;;;;;;;29.21;43.13;101859.38;4912199;28;96952;-81
2023/08/17 04:21:12;;;;;;;0.52;0.40;;;;;;;29.21;43.11;101859.38;4897198;28;99711;-81
2023/08/17 04:23:39;;;;;;;0.70;0.43;;;;;;;29.21;43.35;101862.16;4923249;28;97160;-81
2023/08/17 04:26:05;;;;;;;0.35;0.30;;;;;;;29.20;43.36;101865.97;4908642;28;97180;-81
2023/08/17 04:28:32;;;;;;;0.80;0.60;;;;;;;29.21;43.08;101868.53;4909698;28;96748;-81
2023/08/17 04:30:59;;;;;;;0.30;0.30;;;;;;;29.20;43.22;101866.81;4888278;28;100380;-81
2023/08/17 04:33:30;;;;;;;0.80;0.52;;;;;;;29.20;43.42;101871.50;4912541;28;96822;-80
2023/08/17 04:35:56;;;;;;;0.95;0.40;;;;;;;29.20;43.18;101871.50;4894240;28;96826;-81
2023/08/17 04:38:23;;;;;;;0.32;0.30;;;;;;;29.19;43.38;101872.56;4923750;28;96916;-81
2023/08/17 04:40:49;;;;;;;0.55;0.40;;;;;;;29.19;43.37;101872.56;4911077;28;96946;-81
2023/08/17 04:43:17;;;;;;;0.70;0.50;;;;;;;29.19;43.38;101880.88;4896541;28;98320;-81
2023/08/17 04:45:47;;;;;;;0.50;0.40;;;;;;;29.20;43.01;101874.28;4911013;28;96719;-80
2023/08/17 04:48:14;;;;;;;0.73;0.47;;;;;;;29.18;43.24;101871.72;4911564;28;96787;-81
2023/08/17 04:50:42;;;;;;;0.80;0.60;;;;;;;29.18;42.94;101871.72;4897025;28;99595;-81
2023/08/17 04:53:08;;;;;;;0.88;0.50;;;;;;;29.17;43.17;101872.78;4909504;28;99415;-81
2023/08/17 04:55:35;;;;;;;0.60;0.40;;;;;;;29.17;43.40;101872.78;4894820;28;97516;-81
2023/08/17 04:58:02;;;;;;;0.70;0.50;;;;;;;29.18;43.07;101870.84;4917392;28;96858;-81
2023/08/17 05:00:29;;;;;;;0.30;0.30;;;;;;;29.17;43.01;101871.91;4914136;28;96833;-81
2023/08/17 05:02:56;;;;;;;0.50;0.50;;;;;;;29.18;43.03;101884.69;4914902;28;98860;-80
2023/08/17 05:05:26;;;;;;;0.60;0.40;;;;;;;29.18;43.02;101879.16;4915729;28;97168;-81
2023/08/17 05:07:55;;;;;;;0.65;0.50;;;;;;;29.17;43.42;101870.00;4915120;28;97065;-81
2023/08/17 05:10:22;;;;;;;0.57;0.40;;;;;;;29.17;43.27;101871.91;4914143;28;99326;-81
2023/08/17 05:12:49;;;;;;;0.93;0.45;;;;;;;29.17;43.07;101863.63;4916812;28;99093;-81
2023/08/17 05:15:16;;;;;;;0.82;0.40;;;;;;;29.17;43.37;101869.16;4900235;28;96846;-81
2023/08/17 05:17:43;;;;;;;0.93;0.50;;;;;;;29.17;43.19;101877.44;4901552;28;96957;-81
2023/08/17 05:20:12;;;;;;;0.60;0.60;;;;;;;29.16;43.17;101868.31;4915538;28;99359;-81
2023/08/17 05:22:39;;;;;;;0.40;0.30;;;;;;;29.16;43.10;101870.22;4909281;28;97728;-81
2023/08/17 05:25:06;;;;;;;0.47;0.40;;;;;;;29.16;43.15;101873.84;4928486;28;96709;-81
2023/08/17 05:27:34;;;;;;;0.50;0.40;;;;;;;29.16;43.19;101872.97;4900983;28;96920;-81
2023/08/17 05:30:01;;;;;;;0.82;0.57;;;;;;;29.17;43.37;101871.91;4915949;28;97108;-81
2023/08/17 05:32:28;;;;;;;0.70;0.50;;;;;;;29.16;43.32;101879.38;4915751;28;100535;-81
2023/08/17 05:34:55;;;;;;;0.55;0.40;;;;;;;29.17;43.44;101874.69;4914715;28;96700;-81
2023/08/17 05:37:21;;;;;;;0.40;0.40;;;;;;;29.17;43.26;101871.91;4917532;28;96853;-81
2023/08/17 05:39:48;;;;;;;0.50;0.40;;;;;;;29.17;43.00;101871.91;4915744;28;96774;-80
2023/08/17 05:42:14;;;;;;;0.75;0.40;;;;;;;29.18;43.29;101870.84;4916817;28;99973;-81
2023/08/17 05:44:41;;;;;;;0.60;0.57;;;;;;;29.17;42.95;101866.38;4914727;28;96879;-80
2023/08/17 05:47:07;;;;;;;0.50;0.40;;;;;;;29.16;43.50;101868.31;4917765;28;96910;-81
2023/08/17 05:49:34;;;;;;;0.40;0.40;;;;;;;29.18;43.21;101870.84;4915225;28;99049;-81
2023/08/17 05:52:01;;;;;;;0.70;0.50;;;;;;;29.17;43.14;101867.25;4918359;28;99964;-81
2023/08/17 05:54:27;;;;;;;0.40;0.40;;;;;;;29.18;43.53;101868.09;4915625;28;96950;-81
2023/08/17 05:56:54;;;;;;;0.43;0.32;;;;;;;29.18;43.14;101871.72;4916362;28;96723;-81
2023/08/17 05:59:20;;;;;;;0.50;0.40;;;;;;;29.18;43.36;101870.84;4916689;28;97363;-81
2023/08/17 06:01:47;;;;;;;0.60;0.40;;;;;;;29.19;43.41;101883.63;4898587;28;99876;-81
2023/08/17 06:04:13;;;;;;;0.75;0.50;;;;;;;29.18;43.25;101888.31;4918249;28;97133;-82
2023/08/17 06:06:40;;;;;;;0.40;0.38;;;;;;;29.20;43.41;101894.50;4912045;28;96989;-81
2023/08/17 06:09:08;;;;;;;0.75;0.40;;;;;;;29.18;43.11;101899.38;4916391;28;96839;-80
2023/08/17 06:11:35;;;;;;;0.52;0.43;;;;;;;29.18;43.30;101891.06;4916613;28;99119;-81
2023/08/17 06:14:01;;;;;;;0.40;0.30;;;;;;;29.18;43.36;101891.06;4914526;28;96607;-81
2023/08/17 06:16:27;;;;;;;0.60;0.40;;;;;;;29.18;43.35;101893.00;4917578;28;96946;-81
2023/08/17 06:18:54;;;;;;;0.40;0.30;;;;;;;29.18;43.23;101896.63;4919970;28;97896;-81
2023/08/17 06:21:21;;;;;;;0.50;0.40;;;;;;;29.18;42.83;101893.84;4919459;28;97504;-81
2023/08/17 06:23:47;;;;;;;0.30;0.30;;;;;;;29.18;43.17;101891.06;4916868;28;96938;-81
2023/08/17 06:26:14;;;;;;;0.57;0.43;;;;;;;29.19;43.42;101891.94;4910471;28;96564;-81
2023/08/17 06:28:40;;;;;;;0.50;0.40;;;;;;;29.19;43.34;101897.47;4907142;28;97015;-81
2023/08/17 06:31:07;;;;;;;0.63;0.50;;;;;;;29.19;43.28;101897.47;4917924;28;100123;-81
2023/08/17 06:33:34;;;;;;;0.77;0.40;;;;;;;29.18;43.28;101899.38;4919624;28;96798;-80
2023/08/17 06:36:00;;;;;;;0.60;0.40;;;;;;;29.19;43.33;101898.31;4911178;28;96778;-81
2023/08/17 06:38:27;;;;;;;0.70;0.50;;;;;;;29.19;43.12;101903.00;4894737;28;97219;-81
2023/08/17 06:40:53;;;;;;;1.08;0.40;;;;;;;29.19;43.24;101897.47;4915727;28;96810;-81
2023/08/17 06:43:20;;;;;;;0.60;0.40;;;;;;;29.18;43.08;101896.63;4909811;28;97008;-81
2023/08/17 06:45:46;;;;;;;0.30;0.25;;;;;;;29.18;42.96;101896.63;4903315;28;96711;-81
2023/08/17 06:48:13;;;;;;;0.60;0.40;;;;;;;29.18;43.41;101890.22;4931681;28;96636;-81
2023/08/17 06:50:39;;;;;;;0.40;0.35;;;;;;;29.18;43.31;101890.22;4919176;28;96674;-81
2023/08/17 06:53:07;;;;;;;0.50;0.40;;;;;;;29.18;43.19;101895.75;4919289;28;96689;-81
2023/08/17 06:55:33;;;;;;;0.50;0.40;;;;;;;29.18;43.31;101885.53;4918276;28;96868;-81
2023/08/17 06:58:00;;;;;;;0.98;0.50;;;;;;;29.18;43.47;101890.22;4920486;28;96723;-80
2023/08/17 07:00:26;;;;;;;0.60;0.45;;;;;;;29.17;43.17;101897.66;4918449;28;97173;-80
2023/08/17 07:02:53;;;;;;;0.60;0.40;;;;;;;29.17;43.32;101892.13;4919511;28;96639;-80
2023/08/17 07:05:24;;;;;;;0.60;0.43;;;;;;;29.18;43.19;101896.63;4917216;28;96807;-81
2023/08/17 07:07:50;;;;;;;0.85;0.40;;;;;;;29.18;43.36;101896.63;4918262;28;97013;-81
2023/08/17 07:10:17;;;;;;;0.50;0.40;;;;;;;29.18;43.29;101901.28;4899130;28;96797;-81
2023/08/17 07:12:43;;;;;;;0.50;0.40;;;;;;;29.17;43.31;101903.19;4919419;28;97177;-81
2023/08/17 07:15:12;;;;;;;0.85;0.55;;;;;;;29.17;43.23;101905.97;4921077;28;97089;-81
2023/08/17 07:17:39;;;;;;;0.65;0.40;;;;;;;29.18;43.09;101898.53;4921465;28;96625;-81
2023/08/17 07:20:07;;;;;;;0.50;0.40;;;;;;;29.18;43.25;101904.06;4922767;28;97327;-81
2023/08/17 07:22:46;;;;;;;0.68;0.47;;;;;;;29.16;43.26;101903.41;4918456;28;97079;-81
2023/08/17 07:25:12;;;;;;;0.55;0.40;;;;;;;29.17;43.26;101907.88;4918777;28;96824;-81
2023/08/17 07:27:39;;;;;;;0.40;0.35;;;;;;;29.17;43.26;101910.66;4933452;28;96892;-81
2023/08/17 07:30:06;;;;;;;0.40;0.30;;;;;;;29.16;43.14;101915.34;4930437;28;96748;-81
2023/08/17 07:32:33;;;;;;;0.57;0.40;;;;;;;29.16;43.32;101911.72;4907813;28;96772;-81
2023/08/17 07:35:00;;;;;;;0.40;0.30;;;;;;;29.16;43.15;101914.47;4918214;28;97340;-81
2023/08/17 07:37:32;;;;;;;0.47;0.38;;;;;;;29.15;43.18;101916.38;4918581;28;97927;-81
2023/08/17 07:39:59;;;;;;;0.82;0.52;;;;;;;29.15;43.37;101916.38;4916803;28;97575;-81
2023/08/17 07:42:26;;;;;;;0.50;0.40;;;;;;;29.16;43.21;101914.47;4899803;28;96732;-82
2023/08/17 07:44:53;;;;;;;1.35;0.50;;;;;;;29.14;43.38;101914.69;4902874;28;96899;-81
2023/08/17 07:47:19;;;;;;;0.40;0.30;;;;;;;29.15;43.22;101908.09;4919156;28;96718;-81
2023/08/17 07:49:46;;;;;;;0.50;0.40;;;;;;;29.15;43.10;101910.84;4919405;28;97516;-81
2023/08/17 07:52:15;;;;;;;0.35;0.28;;;;;;;29.16;43.15;101908.94;4921413;28;96899;-81
2023/08/17 07:54:42;;;;;;;0.50;0.40;;;;;;;29.15;43.21;101901.69;4911294;28;96765;-81
2023/08/17 07:57:09;;;;;;;0.77;0.40;;;;;;;29.15;43.18;101902.56;4917904;28;96858;-80
2023/08/17 07:59:35;;;;;;;0.50;0.40;;;;;;;29.16;43.25;101906.19;4920103;28;96657;-81
2023/08/17 08:02:02;;;;;;;0.40;0.30;;;;;;;29.16;43.46;101911.72;4920089;28;96869;-81
2023/08/17 08:04:28;;;;;;;0.30;0.30;;;;;;;29.16;43.15;101911.72;4900302;28;97005;-81
2023/08/17 08:06:55;;;;;;;0.68;0.38;;;;;;;29.16;43.03;101922.78;4920551;28;98016;-81
2023/08/17 08:09:21;;;;;;;0.80;0.43;;;;;;;29.15;43.12;101921.91;4919009;28;96656;-81
2023/08/17 08:11:48;;;;;;;0.73;0.40;;;;;;;29.15;43.13;101921.91;4916087;28;96749;-81
2023/08/17 08:14:14;;;;;;;0.50;0.30;;;;;;;29.16;43.21;101920.00;4910739;28;98089;-81
2023/08/17 08:16:41;;;;;;;0.50;0.40;;;;;;;29.14;42.95;101922.13;4913740;28;99346;-81
2023/08/17 08:19:07;;;;;;;0.60;0.40;;;;;;;29.14;43.19;101922.97;4914446;28;96959;-81
2023/08/17 08:21:34;;;;;;;0.93;0.40;;;;;;;29.15;43.31;101929.38;4922181;28;96998;-81
2023/08/17 08:24:00;;;;;;;0.52;0.40;;;;;;;29.14;43.27;101917.44;4902458;28;97069;-81
2023/08/17 08:26:27;;;;;;;0.60;0.50;;;;;;;29.15;43.02;101926.59;4910305;28;100933;-81
2023/08/17 08:28:54;;;;;;;0.50;0.38;;;;;;;29.15;43.26;101926.59;4915670;28;98395;-81
2023/08/17 08:31:20;;;;;;;0.40;0.32;;;;;;;29.15;43.14;101926.59;4915044;28;96721;-82
2023/08/17 08:33:47;;;;;;;0.38;0.30;;;;;;;29.13;43.03;101921.28;4919932;28;96835;-81
2023/08/17 08:36:13;;;;;;;0.32;0.30;;;;;;;29.13;43.05;101915.75;4895867;28;99122;-81
2023/08/17 08:38:40;;;;;;;0.85;0.30;;;;;;;29.14;43.20;101916.59;4904843;28;98281;-81
2023/08/17 08:41:08;;;;;;;0.60;0.40;;;;;;;29.14;43.01;101917.44;4917011;28;96860;-81
2023/08/17 08:43:35;;;;;;;0.50;0.40;;;;;;;29.13;43.09;101921.28;4912728;28;97488;-81
2023/08/17 08:46:02;;;;;;;0.60;0.40;;;;;;;29.13;42.98;101925.94;4921152;28;100346;-81
2023/08/17 08:48:29;;;;;;;0.73;0.47;;;;;;;29.13;42.92;101926.81;4915139;28;97373;-81
2023/08/17 08:50:56;;;;;;;0.70;0.50;;;;;;;29.12;43.03;101925.09;4919217;28;96782;-80
2023/08/17 08:53:37;;;;;;;0.60;0.47;;;;;;;29.14;43.16;101922.13;4919587;28;97032;-80
2023/08/17 08:56:06;;;;;;;0.50;0.30;;;;;;;29.12;42.96;101919.56;4915170;28;96831;-81
2023/08/17 08:58:34;;;;;;;0.40;0.35;;;;;;;29.12;43.19;101925.09;4917832;28;96833;-80
2023/08/17 09:01:02;;;;;;;0.85;0.40;;;;;;;29.13;42.86;101917.66;4921008;28;96659;-81
2023/08/17 09:03:34;;;;;;;0.90;0.40;;;;;;;29.12;43.21;101914.03;4925147;28;96712;-81
2023/08/17 09:06:01;;;;;;;0.45;0.30;;;;;;;29.13;43.19;101915.75;4931904;28;99659;-81
2023/08/17 09:08:29;;;;;;;0.90;0.40;;;;;;;29.13;43.00;101912.97;4923354;28;98027;-81
2023/08/17 09:10:57;;;;;;;0.35;0.30;;;;;;;29.13;43.25;101909.34;4917824;28;96749;-81
2023/08/17 09:13:23;;;;;;;0.70;0.30;;;;;;;29.13;43.21;101910.22;4916907;28;96877;-81
2023/08/17 09:15:50;;;;;;;0.70;0.50;;;;;;;29.14;43.20;101906.38;4915457;28;100386;-81
2023/08/17 09:18:17;;;;;;;0.50;0.40;;;;;;;29.15;42.85;101915.53;4915032;28;98810;-80
2023/08/17 09:20:47;;;;;;;0.50;0.40;;;;;;;29.14;43.03;101908.28;4915017;28;96939;-81
2023/08/17 09:23:17;;;;;;;1.15;0.45;;;;;;;29.15;43.09;101904.47;4923256;28;97146;-81
2023/08/17 09:25:45;;;;;;;0.77;0.50;;;;;;;29.14;43.14;101902.75;4923442;28;98395;-81
2023/08/17 09:28:14;;;;;;;0.57;0.40;;;;;;;29.14;43.14;101897.22;4924654;28;97896;-82
2023/08/17 09:30:52;;;;;;;0.50;0.50;;;;;;;29.14;43.09;101897.22;4928398;28;96167;-82
2023/08/17 09:33:23;;;;;;;1.00;0.40;;;;;;;29.14;43.03;101897.22;4926610;28;97702;-80
2023/08/17 09:35:51;;;;;;;0.45;0.40;;;;;;;29.13;42.94;101896.38;4942603;28;96686;-81
2023/08/17 09:38:18;;;;;;;0.50;0.40;;;;;;;29.15;42.98;101897.03;4902621;28;97517;-81
2023/08/17 09:40:46;;;;;;;0.65;0.40;;;;;;;29.16;42.93;101897.88;4930231;28;96742;-81
2023/08/17 09:43:14;;;;;;;0.80;0.50;;;;;;;29.16;43.14;101895.13;4924100;28;96710;-80
2023/08/17 09:45:44;;;;;;;0.80;0.32;;;;;;;29.14;42.96;101889.78;4925138;28;97319;-80
2023/08/17 09:48:10;;;;;;;0.47;0.32;;;;;;;29.16;43.09;101886.81;4922639;28;98407;-81
2023/08/17 09:50:37;;;;;;;0.50;0.40;;;;;;;29.15;42.85;101891.50;4922921;28;96799;-81
2023/08/17 09:53:04;;;;;;;0.73;0.30;;;;;;;29.16;43.09;101887.66;4918733;28;96919;-81
2023/08/17 09:55:34;;;;;;;0.52;0.40;;;;;;;29.16;42.88;101887.66;4919322;28;97813;-81
2023/08/17 09:58:00;;;;;;;0.43;0.30;;;;;;;29.16;43.14;101890.44;4898642;28;99475;-81
2023/08/17 10:00:28;;;;;;;0.45;0.40;;;;;;;29.17;43.12;101888.53;4918387;28;97012;-81
2023/08/17 10:02:57;;;;;;;0.40;0.35;;;;;;;29.16;42.74;101887.66;4931460;28;97452;-81
2023/08/17 10:05:28;;;;;;;0.40;0.40;;;;;;;29.15;43.16;101887.88;4904486;28;97046;-81
2023/08/17 10:07:57;;;;;;;0.57;0.40;;;;;;;29.15;43.03;101885.09;4929316;28;96629;-81
2023/08/17 10:10:26;;;;;;;0.80;0.40;;;;;;;29.15;43.07;101880.44;4932349;28;96636;-81
2023/08/17 10:13:09;;;;;;;0.55;0.40;;;;;;;29.17;42.74;101878.31;4929079;28;96619;-82
2023/08/17 10:16:03;;;;;;;0.60;0.50;;;;;;;29.17;42.91;101877.44;4932958;28;96436;-80
2023/08/17 10:18:50;;;;;;;0.70;0.40;;;;;;;29.16;43.04;101881.28;4932776;28;98977;-81
2023/08/17 10:21:27;;;;;;;0.50;0.50;;;;;;;29.17;42.94;101880.22;4933965;28;96592;-80
2023/08/17 10:23:55;;;;;;;0.55;0.40;;;;;;;29.16;43.02;101886.81;4927297;28;96774;-81
2023/08/17 10:26:22;;;;;;;0.55;0.40;;;;;;;29.16;42.67;101875.75;4931348;28;99698;-81
2023/08/17 10:28:50;;;;;;;0.55;0.40;;;;;;;29.17;43.19;101874.69;4931461;28;99373;-81
2023/08/17 10:31:17;;;;;;;2.15;0.50;;;;;;;29.16;43.00;101865.53;4931948;28;96625;-80
2023/08/17 10:33:47;;;;;;;0.50;0.40;;;;;;;29.17;43.06;101871.91;4930672;28;96585;-81
2023/08/17 10:36:15;;;;;;;0.73;0.50;;;;;;;29.18;43.08;101868.09;4930587;28;97682;-81
2023/08/17 10:38:41;;;;;;;0.65;0.50;;;;;;;29.17;42.83;101870.00;4932123;28;96672;-81
2023/08/17 10:41:10;;;;;;;0.90;0.47;;;;;;;29.18;43.07;101862.56;4932077;28;97143;-81
2023/08/17 10:43:57;;;;;;;0.52;0.40;;;;;;;29.17;42.75;101856.16;4914803;28;97069;-80
2023/08/17 10:46:34;;;;;;;0.52;0.40;;;;;;;29.17;42.83;101858.09;4923112;28;97181;-81
2023/08/17 10:49:05;;;;;;;0.60;0.43;;;;;;;29.16;42.92;101861.91;4929311;28;97210;-81
2023/08/17 10:51:32;;;;;;;0.70;0.40;;;;;;;29.17;42.83;101866.38;4913682;28;96810;-81
2023/08/17 10:54:02;;;;;;;0.52;0.40;;;;;;;29.17;42.95;101861.72;4928772;28;96743;-81
2023/08/17 10:56:30;;;;;;;0.40;0.40;;;;;;;29.17;42.89;101861.72;4928003;28;98366;-81
2023/08/17 10:59:01;;;;;;;1.25;0.52;;;;;;;29.18;42.72;101857.03;4928291;28;97954;-81
2023/08/17 11:01:51;;;;;;;0.70;0.40;;;;;;;29.17;42.98;101861.72;4929020;28;96733;-81
2023/08/17 11:04:18;;;;;;;0.88;0.40;;;;;;;29.18;42.62;101862.56;4924398;28;97020;-81
2023/08/17 11:06:45;;;;;;;0.70;0.50;;;;;;;29.17;43.00;101866.38;4928310;28;97731;-80
2023/08/17 11:09:12;;;;;;;0.50;0.50;;;;;;;29.18;42.82;101860.66;4928511;28;97903;-81
2023/08/17 11:11:38;;;;;;;0.60;0.50;;;;;;;29.18;42.95;101868.94;4927925;28;97183;-80
2023/08/17 11:14:05;;;;;;;0.57;0.32;;;;;;;29.19;42.82;101861.50;4929394;28;96914;-81
2023/08/17 11:16:32;;;;;;;0.55;0.32;;;;;;;29.18;42.78;101863.41;4926603;28;97764;-81
2023/08/17 11:19:00;;;;;;;0.90;0.45;;;;;;;29.18;42.77;101874.47;4924711;28;97434;-80
2023/08/17 11:21:26;;;;;;;0.93;0.60;;;;;;;29.18;42.92;101868.09;4920769;28;96742;-80
2023/08/17 11:23:55;;;;;;;0.70;0.60;;;;;;;29.19;42.79;101872.56;4927145;28;96612;-80
2023/08/17 11:26:22;;;;;;;0.52;0.50;;;;;;;29.18;42.63;101876.41;4927035;28;97739;-81
2023/08/17 11:28:49;;;;;;;0.65;0.45;;;;;;;29.19;42.97;101869.81;4922481;28;98684;-81